sensor_id;sensor_type;location;lat;lon;timestamp;temperature;humidity
26537;DHT22;14204;51.262;5.488;2023-05-10T00:02:09;16.60;99.90
26537;DHT22;14204;51.262;5.488;2023-05-10T00:04:35;16.60;99.90
26537;DHT22;14204;51.262;5.488;2023-05-10T00:07:01;16.60;99.90
26537;DHT22;14204;51.262;5.488;2023-05-10T00:09:27;16.60;99.90
26537;DHT22;14204;51.262;5.488;2023-05-10T00:11:53;16.60;99.90
26537;DHT22;14204;51.262;5.488;2023-05-10T00:14:18;16.60;99.90
26537;DHT22;14204;51.262;5.488;2023-05-10T00:16:45;16.60;99.90
26537;DHT22;14204;51.262;5.488;2023-05-10T00:19:10;16.60;99.90
26537;DHT22;14204;51.262;5.488;2023-05-10T00:21:36;16.60;99.90
26537;DHT22;14204;51.262;5.488;2023-05-10T00:24:02;16.60;99.90
26537;DHT22;14204;51.262;5.488;2023-05-10T00:26:28;16.50;99.90
26537;DHT22;14204;51.262;5.488;2023-05-10T00:28:53;16.50;99.90
26537;DHT22;14204;51.262;5.488;2023-05-10T00:31:19;16.50;99.90
26537;DHT22;14204;51.262;5.488;2023-05-10T00:33:45;16.50;99.90
26537;DHT22;14204;51.262;5.488;2023-05-10T00:36:11;16.50;99.90
26537;DHT22;14204;51.262;5.488;2023-05-10T00:38:36;16.40;99.90
26537;DHT22;14204;51.262;5.488;2023-05-10T00:41:02;16.50;99.90
26537;DHT22;14204;51.262;5.488;2023-05-10T00:43:28;16.50;99.90
26537;DHT22;14204;51.262;5.488;2023-05-10T00:45:54;16.40;99.90
26537;DHT22;14204;51.262;5.488;2023-05-10T00:48:21;16.50;99.90
26537;DHT22;14204;51.262;5.488;2023-05-10T00:50:47;16.50;99.90
26537;DHT22;14204;51.262;5.488;2023-05-10T00:53:14;16.40;99.90
26537;DHT22;14204;51.262;5.488;2023-05-10T00:55:40;16.40;99.90
26537;DHT22;14204;51.262;5.488;2023-05-10T00:58:06;16.40;99.90
26537;DHT22;14204;51.262;5.488;2023-05-10T01:00:32;16.40;99.90
26537;DHT22;14204;51.262;5.488;2023-05-10T01:02:58;16.40;99.90
26537;DHT22;14204;51.262;5.488;2023-05-10T01:05:25;16.40;99.90
26537;DHT22;14204;51.262;5.488;2023-05-10T01:07:52;16.40;99.90
26537;DHT22;14204;51.262;5.488;2023-05-10T01:10:18;16.40;99.90
26537;DHT22;14204;51.262;5.488;2023-05-10T01:12:45;16.30;99.90
26537;DHT22;14204;51.262;5.488;2023-05-10T01:15:12;16.40;99.90
26537;DHT22;14204;51.262;5.488;2023-05-10T01:17:40;16.30;99.90
26537;DHT22;14204;51.262;5.488;2023-05-10T01:20:09;16.30;99.90
26537;DHT22;14204;51.262;5.488;2023-05-10T01:33:38;16.30;99.90
26537;DHT22;14204;51.262;5.488;2023-05-10T01:39:03;16.30;99.90
26537;DHT22;14204;51.262;5.488;2023-05-10T01:41:45;16.30;99.90
26537;DHT22;14204;51.262;5.488;2023-05-10T01:47:23;16.30;99.90
26537;DHT22;14204;51.262;5.488;2023-05-10T01:49:55;16.30;99.90
26537;DHT22;14204;51.262;5.488;2023-05-10T01:52:36;16.30;99.90
26537;DHT22;14204;51.262;5.488;2023-05-10T01:55:08;16.30;99.90
26537;DHT22;14204;51.262;5.488;2023-05-10T01:57:36;16.20;99.90
26537;DHT22;14204;51.262;5.488;2023-05-10T02:00:06;16.20;99.90
26537;DHT22;14204;51.262;5.488;2023-05-10T02:02:36;16.20;99.90
26537;DHT22;14204;51.262;5.488;2023-05-10T02:05:03;16.10;99.90
26537;DHT22;14204;51.262;5.488;2023-05-10T02:07:32;16.20;99.90
26537;DHT22;14204;51.262;5.488;2023-05-10T02:09:59;16.20;99.90
26537;DHT22;14204;51.262;5.488;2023-05-10T02:12:27;16.20;99.90
26537;DHT22;14204;51.262;5.488;2023-05-10T02:14:54;16.10;99.90
26537;DHT22;14204;51.262;5.488;2023-05-10T02:17:21;16.10;99.90
26537;DHT22;14204;51.262;5.488;2023-05-10T02:19:48;16.10;99.90
26537;DHT22;14204;51.262;5.488;2023-05-10T02:22:16;16.10;99.90
26537;DHT22;14204;51.262;5.488;2023-05-10T02:24:43;16.10;99.90
26537;DHT22;14204;51.262;5.488;2023-05-10T02:27:10;16.10;99.90
26537;DHT22;14204;51.262;5.488;2023-05-10T02:29:37;16.00;99.90
26537;DHT22;14204;51.262;5.488;2023-05-10T02:32:03;16.10;99.90
26537;DHT22;14204;51.262;5.488;2023-05-10T02:34:29;16.00;99.90
26537;DHT22;14204;51.262;5.488;2023-05-10T02:36:57;16.00;99.90
26537;DHT22;14204;51.262;5.488;2023-05-10T02:39:23;15.90;99.90
26537;DHT22;14204;51.262;5.488;2023-05-10T02:41:50;15.90;99.90
26537;DHT22;14204;51.262;5.488;2023-05-10T02:44:20;16.00;99.90
26537;DHT22;14204;51.262;5.488;2023-05-10T02:46:47;16.00;99.90
26537;DHT22;14204;51.262;5.488;2023-05-10T02:49:13;16.00;99.90
26537;DHT22;14204;51.262;5.488;2023-05-10T02:51:49;16.00;99.90
26537;DHT22;14204;51.262;5.488;2023-05-10T02:54:20;15.90;99.90
26537;DHT22;14204;51.262;5.488;2023-05-10T02:56:57;15.90;99.90
26537;DHT22;14204;51.262;5.488;2023-05-10T02:59:23;15.90;99.90
26537;DHT22;14204;51.262;5.488;2023-05-10T03:01:49;15.90;99.90
26537;DHT22;14204;51.262;5.488;2023-05-10T03:04:14;15.90;99.90
26537;DHT22;14204;51.262;5.488;2023-05-10T03:06:42;15.90;99.90
26537;DHT22;14204;51.262;5.488;2023-05-10T03:09:08;15.90;99.90
26537;DHT22;14204;51.262;5.488;2023-05-10T03:11:56;15.90;99.90
26537;DHT22;14204;51.262;5.488;2023-05-10T03:14:57;15.90;99.90
26537;DHT22;14204;51.262;5.488;2023-05-10T03:17:30;16.00;99.90
26537;DHT22;14204;51.262;5.488;2023-05-10T03:20:04;15.90;99.90
26537;DHT22;14204;51.262;5.488;2023-05-10T03:22:36;15.90;99.90
26537;DHT22;14204;51.262;5.488;2023-05-10T03:25:06;15.90;99.90
26537;DHT22;14204;51.262;5.488;2023-05-10T03:27:32;16.00;99.90
26537;DHT22;14204;51.262;5.488;2023-05-10T03:29:59;16.00;99.90
26537;DHT22;14204;51.262;5.488;2023-05-10T03:32:28;15.90;99.90
26537;DHT22;14204;51.262;5.488;2023-05-10T03:34:55;15.80;99.90
26537;DHT22;14204;51.262;5.488;2023-05-10T03:37:21;15.80;99.90
26537;DHT22;14204;51.262;5.488;2023-05-10T03:39:47;15.70;99.90
26537;DHT22;14204;51.262;5.488;2023-05-10T03:42:12;15.80;99.90
26537;DHT22;14204;51.262;5.488;2023-05-10T03:44:41;15.80;99.90
26537;DHT22;14204;51.262;5.488;2023-05-10T03:47:07;15.80;99.90
26537;DHT22;14204;51.262;5.488;2023-05-10T03:49:32;15.80;99.90
26537;DHT22;14204;51.262;5.488;2023-05-10T03:51:58;15.90;99.90
26537;DHT22;14204;51.262;5.488;2023-05-10T03:54:24;15.90;99.90
26537;DHT22;14204;51.262;5.488;2023-05-10T03:56:49;15.90;99.90
26537;DHT22;14204;51.262;5.488;2023-05-10T03:59:15;15.80;99.90
26537;DHT22;14204;51.262;5.488;2023-05-10T04:01:41;15.80;99.90
26537;DHT22;14204;51.262;5.488;2023-05-10T04:04:06;15.80;99.90
26537;DHT22;14204;51.262;5.488;2023-05-10T04:06:32;15.70;99.90
26537;DHT22;14204;51.262;5.488;2023-05-10T04:08:58;15.70;99.90
26537;DHT22;14204;51.262;5.488;2023-05-10T04:11:25;15.70;99.90
26537;DHT22;14204;51.262;5.488;2023-05-10T04:13:51;15.70;99.90
26537;DHT22;14204;51.262;5.488;2023-05-10T04:16:17;15.80;99.90
26537;DHT22;14204;51.262;5.488;2023-05-10T04:18:42;15.80;99.90
26537;DHT22;14204;51.262;5.488;2023-05-10T04:21:14;15.70;99.90
26537;DHT22;14204;51.262;5.488;2023-05-10T04:23:40;15.70;99.90
26537;DHT22;14204;51.262;5.488;2023-05-10T04:26:06;15.70;99.90
26537;DHT22;14204;51.262;5.488;2023-05-10T04:28:32;15.70;99.90
26537;DHT22;14204;51.262;5.488;2023-05-10T04:31:02;15.80;99.90
26537;DHT22;14204;51.262;5.488;2023-05-10T04:33:28;15.80;99.90
26537;DHT22;14204;51.262;5.488;2023-05-10T04:35:54;15.80;99.90
26537;DHT22;14204;51.262;5.488;2023-05-10T04:38:19;15.70;99.90
26537;DHT22;14204;51.262;5.488;2023-05-10T04:40:45;15.80;99.90
26537;DHT22;14204;51.262;5.488;2023-05-10T04:43:11;15.70;99.90
26537;DHT22;14204;51.262;5.488;2023-05-10T04:45:36;15.70;99.90
26537;DHT22;14204;51.262;5.488;2023-05-10T04:48:02;15.70;99.90
26537;DHT22;14204;51.262;5.488;2023-05-10T04:50:28;15.70;99.90
26537;DHT22;14204;51.262;5.488;2023-05-10T04:52:53;15.70;99.90
26537;DHT22;14204;51.262;5.488;2023-05-10T04:55:19;15.70;99.90
26537;DHT22;14204;51.262;5.488;2023-05-10T04:57:45;15.70;99.90
26537;DHT22;14204;51.262;5.488;2023-05-10T05:00:12;15.60;99.90
26537;DHT22;14204;51.262;5.488;2023-05-10T05:02:38;15.70;99.90
26537;DHT22;14204;51.262;5.488;2023-05-10T05:05:04;15.70;99.90
26537;DHT22;14204;51.262;5.488;2023-05-10T05:07:30;15.70;99.90
26537;DHT22;14204;51.262;5.488;2023-05-10T05:09:56;15.70;99.90
26537;DHT22;14204;51.262;5.488;2023-05-10T05:12:22;15.70;99.90
26537;DHT22;14204;51.262;5.488;2023-05-10T05:14:47;15.70;99.90
26537;DHT22;14204;51.262;5.488;2023-05-10T05:17:13;15.70;99.90
26537;DHT22;14204;51.262;5.488;2023-05-10T05:19:38;15.60;99.90
26537;DHT22;14204;51.262;5.488;2023-05-10T05:22:06;15.50;99.90
26537;DHT22;14204;51.262;5.488;2023-05-10T05:24:36;15.50;99.90
26537;DHT22;14204;51.262;5.488;2023-05-10T05:27:05;15.50;99.90
26537;DHT22;14204;51.262;5.488;2023-05-10T05:29:31;15.50;99.90
26537;DHT22;14204;51.262;5.488;2023-05-10T05:31:57;15.50;99.90
26537;DHT22;14204;51.262;5.488;2023-05-10T05:34:23;15.60;99.90
26537;DHT22;14204;51.262;5.488;2023-05-10T05:36:50;15.60;99.90
26537;DHT22;14204;51.262;5.488;2023-05-10T05:39:15;15.70;99.90
26537;DHT22;14204;51.262;5.488;2023-05-10T05:41:41;15.70;99.90
26537;DHT22;14204;51.262;5.488;2023-05-10T05:44:07;15.70;99.90
26537;DHT22;14204;51.262;5.488;2023-05-10T05:46:33;15.70;99.90
26537;DHT22;14204;51.262;5.488;2023-05-10T05:48:59;15.70;99.90
26537;DHT22;14204;51.262;5.488;2023-05-10T05:51:25;15.70;99.90
26537;DHT22;14204;51.262;5.488;2023-05-10T05:53:50;15.70;99.90
26537;DHT22;14204;51.262;5.488;2023-05-10T05:56:16;15.70;99.90
26537;DHT22;14204;51.262;5.488;2023-05-10T05:58:52;15.70;99.90
26537;DHT22;14204;51.262;5.488;2023-05-10T06:01:17;15.80;99.90
26537;DHT22;14204;51.262;5.488;2023-05-10T06:03:43;15.70;99.90
26537;DHT22;14204;51.262;5.488;2023-05-10T06:06:09;15.80;99.90
26537;DHT22;14204;51.262;5.488;2023-05-10T06:08:34;15.80;99.90
26537;DHT22;14204;51.262;5.488;2023-05-10T06:11:01;15.80;99.90
26537;DHT22;14204;51.262;5.488;2023-05-10T06:13:27;15.80;99.90
26537;DHT22;14204;51.262;5.488;2023-05-10T06:16:00;15.90;99.90
26537;DHT22;14204;51.262;5.488;2023-05-10T06:18:26;15.90;99.90
26537;DHT22;14204;51.262;5.488;2023-05-10T06:20:52;15.90;99.90
26537;DHT22;14204;51.262;5.488;2023-05-10T06:23:18;15.70;99.90
26537;DHT22;14204;51.262;5.488;2023-05-10T06:25:43;15.70;99.90
26537;DHT22;14204;51.262;5.488;2023-05-10T06:28:09;15.70;99.90
26537;DHT22;14204;51.262;5.488;2023-05-10T06:30:36;15.70;99.90
26537;DHT22;14204;51.262;5.488;2023-05-10T06:33:02;15.80;99.90
26537;DHT22;14204;51.262;5.488;2023-05-10T06:35:28;15.90;99.90
26537;DHT22;14204;51.262;5.488;2023-05-10T06:37:55;15.90;99.90
26537;DHT22;14204;51.262;5.488;2023-05-10T06:40:20;16.00;99.90
26537;DHT22;14204;51.262;5.488;2023-05-10T06:42:47;16.00;99.90
26537;DHT22;14204;51.262;5.488;2023-05-10T06:45:14;16.00;99.90
26537;DHT22;14204;51.262;5.488;2023-05-10T06:47:40;16.00;99.90
26537;DHT22;14204;51.262;5.488;2023-05-10T06:50:07;16.00;99.90
26537;DHT22;14204;51.262;5.488;2023-05-10T06:52:33;15.90;99.90
26537;DHT22;14204;51.262;5.488;2023-05-10T06:54:59;15.90;99.90
26537;DHT22;14204;51.262;5.488;2023-05-10T06:57:25;15.90;99.90
26537;DHT22;14204;51.262;5.488;2023-05-10T06:59:51;16.00;99.90
26537;DHT22;14204;51.262;5.488;2023-05-10T07:02:17;16.00;99.90
26537;DHT22;14204;51.262;5.488;2023-05-10T07:04:43;16.10;99.90
26537;DHT22;14204;51.262;5.488;2023-05-10T07:07:09;16.00;99.90
26537;DHT22;14204;51.262;5.488;2023-05-10T07:09:34;15.90;99.90
26537;DHT22;14204;51.262;5.488;2023-05-10T07:12:00;15.90;99.90
26537;DHT22;14204;51.262;5.488;2023-05-10T07:14:27;15.90;99.90
26537;DHT22;14204;51.262;5.488;2023-05-10T07:16:53;16.00;99.90
26537;DHT22;14204;51.262;5.488;2023-05-10T07:19:18;16.00;99.90
26537;DHT22;14204;51.262;5.488;2023-05-10T07:21:45;16.10;99.90
26537;DHT22;14204;51.262;5.488;2023-05-10T07:24:11;16.10;99.90
26537;DHT22;14204;51.262;5.488;2023-05-10T07:26:37;16.10;99.90
26537;DHT22;14204;51.262;5.488;2023-05-10T07:29:03;16.10;99.90
26537;DHT22;14204;51.262;5.488;2023-05-10T07:31:28;16.20;99.90
26537;DHT22;14204;51.262;5.488;2023-05-10T07:33:54;16.20;99.90
26537;DHT22;14204;51.262;5.488;2023-05-10T07:36:20;16.10;99.90
26537;DHT22;14204;51.262;5.488;2023-05-10T07:38:45;16.20;99.90
26537;DHT22;14204;51.262;5.488;2023-05-10T07:41:12;16.10;99.90
26537;DHT22;14204;51.262;5.488;2023-05-10T07:43:38;16.20;99.90
26537;DHT22;14204;51.262;5.488;2023-05-10T07:46:03;16.20;99.90
26537;DHT22;14204;51.262;5.488;2023-05-10T07:48:29;16.10;99.90
26537;DHT22;14204;51.262;5.488;2023-05-10T07:50:55;16.10;99.90
26537;DHT22;14204;51.262;5.488;2023-05-10T07:53:21;16.00;99.90
26537;DHT22;14204;51.262;5.488;2023-05-10T07:55:57;15.90;99.90
26537;DHT22;14204;51.262;5.488;2023-05-10T07:58:24;15.90;99.90
26537;DHT22;14204;51.262;5.488;2023-05-10T08:00:50;16.00;99.90
26537;DHT22;14204;51.262;5.488;2023-05-10T08:03:16;15.90;99.90
26537;DHT22;14204;51.262;5.488;2023-05-10T08:05:41;15.90;99.90
26537;DHT22;14204;51.262;5.488;2023-05-10T08:08:07;16.00;99.90
26537;DHT22;14204;51.262;5.488;2023-05-10T08:10:33;16.00;99.90
26537;DHT22;14204;51.262;5.488;2023-05-10T08:12:58;16.00;99.90
26537;DHT22;14204;51.262;5.488;2023-05-10T08:15:24;16.00;99.90
26537;DHT22;14204;51.262;5.488;2023-05-10T08:17:52;16.00;99.90
26537;DHT22;14204;51.262;5.488;2023-05-10T08:20:18;16.00;99.90
26537;DHT22;14204;51.262;5.488;2023-05-10T08:22:47;15.90;99.90
26537;DHT22;14204;51.262;5.488;2023-05-10T08:25:13;15.90;99.90
26537;DHT22;14204;51.262;5.488;2023-05-10T08:27:38;16.00;99.90
26537;DHT22;14204;51.262;5.488;2023-05-10T08:30:04;16.10;99.90
26537;DHT22;14204;51.262;5.488;2023-05-10T08:32:30;16.10;99.90
26537;DHT22;14204;51.262;5.488;2023-05-10T08:34:56;16.10;99.90
26537;DHT22;14204;51.262;5.488;2023-05-10T08:37:23;16.10;99.90
26537;DHT22;14204;51.262;5.488;2023-05-10T08:39:49;16.20;99.90
26537;DHT22;14204;51.262;5.488;2023-05-10T08:42:19;16.20;99.90
26537;DHT22;14204;51.262;5.488;2023-05-10T08:44:48;16.20;99.90
26537;DHT22;14204;51.262;5.488;2023-05-10T08:47:16;16.20;99.90
26537;DHT22;14204;51.262;5.488;2023-05-10T08:49:45;16.20;99.90
26537;DHT22;14204;51.262;5.488;2023-05-10T08:52:15;16.30;99.90
26537;DHT22;14204;51.262;5.488;2023-05-10T08:54:42;16.20;99.90
26537;DHT22;14204;51.262;5.488;2023-05-10T08:57:08;16.30;99.90
26537;DHT22;14204;51.262;5.488;2023-05-10T08:59:34;16.20;99.90
26537;DHT22;14204;51.262;5.488;2023-05-10T09:02:00;16.20;99.90
26537;DHT22;14204;51.262;5.488;2023-05-10T09:04:27;16.40;99.90
26537;DHT22;14204;51.262;5.488;2023-05-10T09:06:54;16.40;99.90
26537;DHT22;14204;51.262;5.488;2023-05-10T09:09:21;16.50;99.90
26537;DHT22;14204;51.262;5.488;2023-05-10T09:11:47;16.60;99.90
26537;DHT22;14204;51.262;5.488;2023-05-10T09:14:13;16.70;99.90
26537;DHT22;14204;51.262;5.488;2023-05-10T09:16:40;16.70;99.90
26537;DHT22;14204;51.262;5.488;2023-05-10T09:19:07;16.90;99.90
26537;DHT22;14204;51.262;5.488;2023-05-10T09:21:35;17.00;99.90
26537;DHT22;14204;51.262;5.488;2023-05-10T09:24:08;17.00;99.90
26537;DHT22;14204;51.262;5.488;2023-05-10T09:26:34;17.20;99.90
26537;DHT22;14204;51.262;5.488;2023-05-10T09:29:02;17.20;99.90
26537;DHT22;14204;51.262;5.488;2023-05-10T09:31:46;17.20;99.90
26537;DHT22;14204;51.262;5.488;2023-05-10T09:34:19;17.20;99.90
26537;DHT22;14204;51.262;5.488;2023-05-10T09:36:58;17.30;99.90
26537;DHT22;14204;51.262;5.488;2023-05-10T09:39:33;17.50;99.90
26537;DHT22;14204;51.262;5.488;2023-05-10T09:42:04;17.60;99.90
26537;DHT22;14204;51.262;5.488;2023-05-10T09:44:31;17.60;99.90
26537;DHT22;14204;51.262;5.488;2023-05-10T09:46:57;17.60;99.90
26537;DHT22;14204;51.262;5.488;2023-05-10T09:49:23;17.70;99.90
26537;DHT22;14204;51.262;5.488;2023-05-10T09:52:00;17.80;99.90
26537;DHT22;14204;51.262;5.488;2023-05-10T09:54:26;17.90;99.90
26537;DHT22;14204;51.262;5.488;2023-05-10T09:56:52;18.00;99.90
26537;DHT22;14204;51.262;5.488;2023-05-10T09:59:18;18.10;99.90
26537;DHT22;14204;51.262;5.488;2023-05-10T10:01:49;18.00;99.90
26537;DHT22;14204;51.262;5.488;2023-05-10T10:04:17;18.10;99.90
26537;DHT22;14204;51.262;5.488;2023-05-10T10:06:42;18.00;99.90
26537;DHT22;14204;51.262;5.488;2023-05-10T10:09:09;17.90;99.90
26537;DHT22;14204;51.262;5.488;2023-05-10T10:11:36;18.00;99.90
26537;DHT22;14204;51.262;5.488;2023-05-10T10:14:02;18.10;99.90
26537;DHT22;14204;51.262;5.488;2023-05-10T10:16:31;18.10;99.90
26537;DHT22;14204;51.262;5.488;2023-05-10T10:18:58;18.10;99.90
26537;DHT22;14204;51.262;5.488;2023-05-10T10:21:24;18.20;99.90
26537;DHT22;14204;51.262;5.488;2023-05-10T10:23:51;18.20;99.90
26537;DHT22;14204;51.262;5.488;2023-05-10T10:26:17;18.20;99.90
26537;DHT22;14204;51.262;5.488;2023-05-10T10:34:46;18.10;99.90
26537;DHT22;14204;51.262;5.488;2023-05-10T10:37:12;18.10;99.90
26537;DHT22;14204;51.262;5.488;2023-05-10T10:39:38;18.10;99.90
26537;DHT22;14204;51.262;5.488;2023-05-10T10:42:04;18.00;99.90
26537;DHT22;14204;51.262;5.488;2023-05-10T10:44:34;18.10;99.90
26537;DHT22;14204;51.262;5.488;2023-05-10T10:49:26;18.10;99.90
26537;DHT22;14204;51.262;5.488;2023-05-10T10:52:15;18.10;99.90
26537;DHT22;14204;51.262;5.488;2023-05-10T10:54:45;18.00;99.90
26537;DHT22;14204;51.262;5.488;2023-05-10T10:57:14;18.00;99.90
26537;DHT22;14204;51.262;5.488;2023-05-10T10:59:44;18.00;99.90
26537;DHT22;14204;51.262;5.488;2023-05-10T11:02:10;17.90;99.90
26537;DHT22;14204;51.262;5.488;2023-05-10T11:04:43;17.80;99.90
26537;DHT22;14204;51.262;5.488;2023-05-10T11:07:18;17.70;99.90
26537;DHT22;14204;51.262;5.488;2023-05-10T11:09:47;17.70;99.90
26537;DHT22;14204;51.262;5.488;2023-05-10T11:12:12;17.90;99.90
26537;DHT22;14204;51.262;5.488;2023-05-10T11:14:38;17.90;99.90
26537;DHT22;14204;51.262;5.488;2023-05-10T11:17:24;17.80;99.90
26537;DHT22;14204;51.262;5.488;2023-05-10T11:20:23;17.80;99.90
26537;DHT22;14204;51.262;5.488;2023-05-10T11:22:52;17.90;99.90
26537;DHT22;14204;51.262;5.488;2023-05-10T11:25:18;17.90;99.90
26537;DHT22;14204;51.262;5.488;2023-05-10T11:27:46;18.00;99.90
26537;DHT22;14204;51.262;5.488;2023-05-10T11:30:14;18.20;99.90
26537;DHT22;14204;51.262;5.488;2023-05-10T11:32:40;18.30;99.90
26537;DHT22;14204;51.262;5.488;2023-05-10T11:35:11;18.20;99.90
26537;DHT22;14204;51.262;5.488;2023-05-10T11:37:38;18.20;99.90
26537;DHT22;14204;51.262;5.488;2023-05-10T11:40:08;18.30;99.90
26537;DHT22;14204;51.262;5.488;2023-05-10T11:42:38;18.40;99.90
26537;DHT22;14204;51.262;5.488;2023-05-10T11:45:04;18.40;99.90
26537;DHT22;14204;51.262;5.488;2023-05-10T11:47:30;18.40;99.90
26537;DHT22;14204;51.262;5.488;2023-05-10T11:49:57;18.40;99.90
26537;DHT22;14204;51.262;5.488;2023-05-10T11:52:23;18.40;99.90
26537;DHT22;14204;51.262;5.488;2023-05-10T11:54:52;18.40;99.90
26537;DHT22;14204;51.262;5.488;2023-05-10T11:57:20;18.30;99.90
26537;DHT22;14204;51.262;5.488;2023-05-10T11:59:46;18.30;99.90
26537;DHT22;14204;51.262;5.488;2023-05-10T12:02:13;18.30;99.90
26537;DHT22;14204;51.262;5.488;2023-05-10T12:04:39;18.50;99.90
26537;DHT22;14204;51.262;5.488;2023-05-10T12:07:06;18.50;99.90
26537;DHT22;14204;51.262;5.488;2023-05-10T12:09:31;18.60;99.90
26537;DHT22;14204;51.262;5.488;2023-05-10T12:11:57;18.70;99.90
26537;DHT22;14204;51.262;5.488;2023-05-10T12:14:23;18.80;99.90
26537;DHT22;14204;51.262;5.488;2023-05-10T12:16:50;19.00;99.90
26537;DHT22;14204;51.262;5.488;2023-05-10T12:19:19;19.10;99.90
26537;DHT22;14204;51.262;5.488;2023-05-10T12:21:48;19.00;99.90
26537;DHT22;14204;51.262;5.488;2023-05-10T12:24:14;19.20;99.90
26537;DHT22;14204;51.262;5.488;2023-05-10T12:26:44;19.30;99.90
26537;DHT22;14204;51.262;5.488;2023-05-10T12:29:14;19.20;99.90
26537;DHT22;14204;51.262;5.488;2023-05-10T12:31:57;19.20;99.90
26537;DHT22;14204;51.262;5.488;2023-05-10T12:34:25;19.40;99.90
26537;DHT22;14204;51.262;5.488;2023-05-10T12:37:09;19.40;99.90
26537;DHT22;14204;51.262;5.488;2023-05-10T12:39:46;19.50;99.90
26537;DHT22;14204;51.262;5.488;2023-05-10T12:42:17;19.60;99.90
26537;DHT22;14204;51.262;5.488;2023-05-10T12:44:46;19.60;99.90
26537;DHT22;14204;51.262;5.488;2023-05-10T12:47:12;19.60;99.90
26537;DHT22;14204;51.262;5.488;2023-05-10T12:49:38;19.60;99.90
26537;DHT22;14204;51.262;5.488;2023-05-10T12:52:04;19.70;99.90
26537;DHT22;14204;51.262;5.488;2023-05-10T12:54:29;19.70;99.90
26537;DHT22;14204;51.262;5.488;2023-05-10T12:56:55;19.70;99.90
26537;DHT22;14204;51.262;5.488;2023-05-10T12:59:21;19.80;99.90
26537;DHT22;14204;51.262;5.488;2023-05-10T13:01:48;19.90;99.90
26537;DHT22;14204;51.262;5.488;2023-05-10T13:04:13;20.00;99.90
26537;DHT22;14204;51.262;5.488;2023-05-10T13:06:39;20.00;99.90
26537;DHT22;14204;51.262;5.488;2023-05-10T13:09:05;20.00;99.90
26537;DHT22;14204;51.262;5.488;2023-05-10T13:11:31;20.00;99.90
26537;DHT22;14204;51.262;5.488;2023-05-10T13:13:56;20.00;99.90
26537;DHT22;14204;51.262;5.488;2023-05-10T13:16:22;20.00;99.90
26537;DHT22;14204;51.262;5.488;2023-05-10T13:18:48;20.00;99.90
26537;DHT22;14204;51.262;5.488;2023-05-10T13:21:14;19.80;99.90
26537;DHT22;14204;51.262;5.488;2023-05-10T13:23:39;19.80;99.90
26537;DHT22;14204;51.262;5.488;2023-05-10T13:26:05;19.70;99.90
26537;DHT22;14204;51.262;5.488;2023-05-10T13:28:31;19.70;99.90
26537;DHT22;14204;51.262;5.488;2023-05-10T13:30:56;19.80;99.90
26537;DHT22;14204;51.262;5.488;2023-05-10T13:33:22;19.80;99.90
26537;DHT22;14204;51.262;5.488;2023-05-10T13:35:48;19.70;99.90
26537;DHT22;14204;51.262;5.488;2023-05-10T13:38:14;19.80;99.90
26537;DHT22;14204;51.262;5.488;2023-05-10T13:40:40;19.80;99.90
26537;DHT22;14204;51.262;5.488;2023-05-10T13:43:06;19.70;99.90
26537;DHT22;14204;51.262;5.488;2023-05-10T13:45:32;19.60;99.90
26537;DHT22;14204;51.262;5.488;2023-05-10T13:47:57;19.60;99.90
26537;DHT22;14204;51.262;5.488;2023-05-10T13:50:23;19.60;99.90
26537;DHT22;14204;51.262;5.488;2023-05-10T13:52:49;19.60;99.90
26537;DHT22;14204;51.262;5.488;2023-05-10T13:55:14;19.60;99.90
26537;DHT22;14204;51.262;5.488;2023-05-10T13:57:40;19.60;99.90
26537;DHT22;14204;51.262;5.488;2023-05-10T14:00:07;19.70;99.90
26537;DHT22;14204;51.262;5.488;2023-05-10T14:02:33;19.70;99.90
26537;DHT22;14204;51.262;5.488;2023-05-10T14:04:59;19.60;99.90
26537;DHT22;14204;51.262;5.488;2023-05-10T14:07:25;19.60;99.90
26537;DHT22;14204;51.262;5.488;2023-05-10T14:09:51;19.60;99.90
26537;DHT22;14204;51.262;5.488;2023-05-10T14:12:16;19.60;99.90
26537;DHT22;14204;51.262;5.488;2023-05-10T14:14:42;19.70;99.90
26537;DHT22;14204;51.262;5.488;2023-05-10T14:17:08;19.70;99.90
26537;DHT22;14204;51.262;5.488;2023-05-10T14:19:34;19.60;99.90
26537;DHT22;14204;51.262;5.488;2023-05-10T14:22:00;19.70;99.90
26537;DHT22;14204;51.262;5.488;2023-05-10T14:24:25;19.70;99.90
26537;DHT22;14204;51.262;5.488;2023-05-10T14:26:51;19.80;99.90
26537;DHT22;14204;51.262;5.488;2023-05-10T14:29:20;19.80;99.90
26537;DHT22;14204;51.262;5.488;2023-05-10T14:31:46;19.80;99.90
26537;DHT22;14204;51.262;5.488;2023-05-10T14:34:12;19.60;99.90
26537;DHT22;14204;51.262;5.488;2023-05-10T14:36:37;19.70;99.90
26537;DHT22;14204;51.262;5.488;2023-05-10T14:39:03;19.50;99.90
26537;DHT22;14204;51.262;5.488;2023-05-10T14:41:29;19.50;99.90
26537;DHT22;14204;51.262;5.488;2023-05-10T14:43:55;19.60;99.90
26537;DHT22;14204;51.262;5.488;2023-05-10T14:46:21;19.60;99.90
26537;DHT22;14204;51.262;5.488;2023-05-10T14:48:47;19.50;99.90
26537;DHT22;14204;51.262;5.488;2023-05-10T14:51:13;19.50;99.90
26537;DHT22;14204;51.262;5.488;2023-05-10T14:53:38;19.50;99.90
26537;DHT22;14204;51.262;5.488;2023-05-10T14:56:04;19.40;99.90
26537;DHT22;14204;51.262;5.488;2023-05-10T14:58:30;19.40;99.90
26537;DHT22;14204;51.262;5.488;2023-05-10T15:00:56;19.30;99.90
26537;DHT22;14204;51.262;5.488;2023-05-10T15:03:22;19.20;99.90
26537;DHT22;14204;51.262;5.488;2023-05-10T15:05:48;19.20;99.90
26537;DHT22;14204;51.262;5.488;2023-05-10T15:08:14;19.20;99.90
26537;DHT22;14204;51.262;5.488;2023-05-10T15:10:40;19.20;99.90
26537;DHT22;14204;51.262;5.488;2023-05-10T15:13:06;19.10;99.90
26537;DHT22;14204;51.262;5.488;2023-05-10T15:15:31;19.00;99.90
26537;DHT22;14204;51.262;5.488;2023-05-10T15:17:57;19.10;99.90
26537;DHT22;14204;51.262;5.488;2023-05-10T15:20:23;19.00;99.90
26537;DHT22;14204;51.262;5.488;2023-05-10T15:22:48;19.00;99.90
26537;DHT22;14204;51.262;5.488;2023-05-10T15:25:14;18.90;99.90
26537;DHT22;14204;51.262;5.488;2023-05-10T15:27:41;18.90;99.90
26537;DHT22;14204;51.262;5.488;2023-05-10T15:30:09;18.80;99.90
26537;DHT22;14204;51.262;5.488;2023-05-10T15:32:35;18.80;99.90
26537;DHT22;14204;51.262;5.488;2023-05-10T15:35:02;18.80;99.90
26537;DHT22;14204;51.262;5.488;2023-05-10T15:37:29;18.90;99.90
26537;DHT22;14204;51.262;5.488;2023-05-10T15:39:54;18.80;99.90
26537;DHT22;14204;51.262;5.488;2023-05-10T15:42:27;18.80;99.90
26537;DHT22;14204;51.262;5.488;2023-05-10T15:44:53;18.60;99.90
26537;DHT22;14204;51.262;5.488;2023-05-10T15:47:19;18.30;99.90
26537;DHT22;14204;51.262;5.488;2023-05-10T15:49:44;18.20;99.90
26537;DHT22;14204;51.262;5.488;2023-05-10T15:52:10;18.20;99.90
26537;DHT22;14204;51.262;5.488;2023-05-10T15:54:36;18.20;99.90
26537;DHT22;14204;51.262;5.488;2023-05-10T15:57:02;18.30;99.90